createdAt,value
2023-03-21T00:00:39.159Z,11.00
2023-03-21T00:03:05.836Z,9.00
2023-03-21T00:05:32.412Z,10.60
2023-03-21T00:08:01.043Z,11.40
2023-03-21T00:10:40.106Z,12.00
2023-03-21T00:13:13.465Z,11.00
2023-03-21T00:16:04.495Z,12.00
2023-03-21T00:18:36.898Z,10.20
2023-03-21T00:21:37.568Z,11.40
2023-03-21T00:23:51.275Z,9.75
2023-03-21T00:26:17.876Z,9.20
2023-03-21T00:28:44.428Z,11.00
2023-03-21T00:31:10.974Z,11.00
2023-03-21T00:33:39.244Z,12.00
2023-03-21T00:36:07.014Z,13.40
2023-03-21T00:38:34.439Z,11.00
2023-03-21T00:41:10.870Z,11.60
2023-03-21T00:43:44.142Z,11.25
2023-03-21T00:46:10.868Z,9.60
2023-03-21T00:48:37.495Z,11.00
2023-03-21T00:51:12.540Z,10.40
2023-03-21T00:53:39.000Z,9.25
2023-03-21T00:56:05.543Z,12.80
2023-03-21T00:58:32.046Z,10.00
2023-03-21T01:00:58.816Z,11.00
2023-03-21T01:03:26.696Z,11.50
2023-03-21T01:06:04.425Z,10.00
2023-03-21T01:08:44.588Z,9.00
2023-03-21T01:11:18.738Z,11.00
2023-03-21T01:13:53.667Z,10.00
2023-03-21T01:16:24.981Z,11.40
2023-03-21T01:18:51.585Z,9.40
2023-03-21T01:21:18.181Z,13.00
2023-03-21T01:23:44.777Z,9.00
2023-03-21T01:26:11.732Z,10.00
2023-03-21T01:28:38.740Z,10.00
2023-03-21T01:31:05.823Z,11.00
2023-03-21T01:33:33.068Z,10.60
2023-03-21T01:36:12.333Z,12.00
2023-03-21T01:38:39.570Z,11.25
2023-03-21T01:41:17.069Z,11.60
2023-03-21T01:43:46.105Z,13.00
2023-03-21T01:46:37.110Z,10.60
2023-03-21T01:49:19.177Z,11.00
2023-03-21T01:51:47.520Z,9.75
2023-03-21T01:54:17.290Z,10.20
2023-03-21T01:56:47.097Z,11.80
2023-03-21T01:59:36.607Z,12.00
2023-03-21T02:02:07.422Z,11.00
2023-03-21T02:04:36.035Z,12.75
2023-03-21T02:07:07.906Z,11.60
2023-03-21T02:09:35.297Z,12.00
2023-03-21T02:12:02.255Z,11.00
2023-03-21T02:14:30.524Z,11.00
2023-03-21T02:17:00.229Z,12.00
2023-03-21T02:19:47.632Z,11.00
2023-03-21T02:22:35.447Z,13.40
2023-03-21T02:25:22.136Z,12.00
2023-03-21T02:27:58.596Z,12.50
2023-03-21T02:30:37.392Z,12.40
2023-03-21T02:33:17.942Z,12.00
2023-03-21T02:35:54.519Z,13.00
2023-03-21T02:38:28.332Z,12.00
2023-03-21T02:41:19.109Z,11.50
2023-03-21T02:44:19.003Z,11.00
2023-03-21T02:47:17.762Z,13.00
2023-03-21T02:49:48.215Z,10.50
2023-03-21T02:52:28.633Z,12.00
2023-03-21T02:55:05.132Z,10.00
2023-03-21T02:57:42.131Z,13.00
2023-03-21T03:00:16.603Z,12.80
2023-03-21T03:02:48.838Z,11.00
2023-03-21T03:05:22.305Z,12.00
2023-03-21T03:07:57.765Z,11.00
2023-03-21T03:10:24.323Z,11.00
2023-03-21T03:13:01.431Z,12.00
2023-03-21T03:15:29.307Z,11.00
2023-03-21T03:18:04.508Z,12.40
2023-03-21T03:20:51.332Z,12.00
2023-03-21T03:23:17.857Z,12.75
2023-03-21T03:25:49.007Z,12.60
2023-03-21T03:28:18.180Z,14.50
2023-03-21T03:30:57.413Z,14.00
2023-03-21T03:33:29.278Z,13.50
2023-03-21T03:36:04.978Z,13.00
2023-03-21T03:38:32.659Z,14.00
2023-03-21T03:41:03.608Z,13.33
2023-03-21T03:43:35.684Z,14.00
2023-03-21T03:46:07.368Z,12.75
2023-03-21T03:48:46.380Z,12.00
2023-03-21T03:51:18.239Z,13.00
2023-03-21T03:53:46.681Z,12.50
2023-03-21T03:56:14.050Z,13.00
2023-03-21T03:58:45.844Z,12.80
2023-03-21T04:01:14.403Z,13.00
2023-03-21T04:03:50.559Z,11.60
2023-03-21T04:06:19.669Z,11.25
2023-03-21T04:08:46.213Z,11.40
2023-03-21T04:11:16.447Z,13.50
2023-03-21T04:13:43.013Z,14.40
2023-03-21T04:16:11.715Z,10.80
2023-03-21T04:18:39.399Z,12.00
2023-03-21T04:21:13.324Z,9.60
2023-03-21T04:23:40.557Z,12.00
2023-03-21T04:26:07.367Z,11.00
2023-03-21T04:28:36.447Z,10.60
2023-03-21T04:31:15.997Z,12.00
2023-03-21T04:33:47.969Z,10.50
2023-03-21T04:36:25.223Z,12.50
2023-03-21T04:38:52.634Z,12.00
2023-03-21T04:41:19.450Z,12.00
2023-03-21T04:43:47.531Z,14.00
2023-03-21T04:46:14.094Z,11.60
2023-03-21T04:48:40.636Z,11.00
2023-03-21T04:51:07.193Z,9.67
2023-03-21T04:53:33.686Z,11.40
2023-03-21T04:56:00.800Z,14.75
2023-03-21T04:58:27.601Z,14.25
2023-03-21T05:00:54.169Z,14.00
2023-03-21T05:03:22.055Z,12.60
2023-03-21T05:05:49.028Z,23.00
2023-03-21T05:08:16.374Z,20.00
2023-03-21T05:10:43.000Z,13.00
2023-03-21T05:13:09.545Z,11.00
2023-03-21T05:15:36.175Z,11.00
2023-03-21T05:18:11.412Z,16.00
2023-03-21T05:20:44.686Z,20.50
2023-03-21T05:23:11.880Z,17.00
2023-03-21T05:25:38.991Z,13.00
2023-03-21T05:28:07.116Z,11.60
2023-03-21T05:30:34.143Z,14.60
2023-03-21T05:33:00.686Z,12.60
2023-03-21T05:35:27.600Z,13.80
2023-03-21T05:37:54.135Z,12.50
2023-03-21T05:40:20.875Z,11.75
2023-03-21T05:42:47.834Z,10.00
2023-03-21T05:45:14.685Z,11.40
2023-03-21T05:47:41.183Z,12.50
2023-03-21T05:50:08.003Z,11.00
2023-03-21T05:52:34.505Z,12.00
2023-03-21T05:55:01.017Z,11.00
2023-03-21T05:57:28.896Z,11.20
2023-03-21T05:59:55.420Z,12.00
2023-03-21T06:02:22.127Z,11.40
2023-03-21T06:04:48.692Z,13.25
2023-03-21T06:07:15.365Z,13.40
2023-03-21T06:09:41.921Z,12.00
2023-03-21T06:12:08.439Z,11.00
2023-03-21T06:14:34.863Z,13.50
2023-03-21T06:17:01.332Z,12.00
2023-03-21T06:19:27.799Z,15.00
2023-03-21T06:21:54.392Z,15.00
2023-03-21T06:24:21.599Z,17.60
2023-03-21T06:26:48.478Z,19.60
2023-03-21T06:29:16.334Z,20.00
2023-03-21T06:31:42.926Z,18.00
2023-03-21T06:34:11.865Z,19.20
2023-03-21T06:36:38.362Z,14.75
2023-03-21T06:39:05.166Z,15.20
2023-03-21T06:41:31.694Z,15.00
2023-03-21T06:43:58.285Z,16.25
2023-03-21T06:46:24.906Z,14.00
2023-03-21T06:48:51.450Z,12.60
2023-03-21T06:51:18.120Z,13.00
2023-03-21T06:53:47.429Z,11.20
2023-03-21T06:56:14.636Z,11.20
2023-03-21T06:58:41.481Z,12.00
2023-03-21T07:01:08.412Z,10.25
2023-03-21T07:03:35.153Z,10.75
2023-03-21T07:06:07.104Z,12.00
2023-03-21T07:08:33.676Z,12.00
2023-03-21T07:11:00.182Z,11.00
2023-03-21T07:13:26.714Z,9.00
2023-03-21T07:15:54.387Z,9.00
2023-03-21T07:18:21.050Z,10.60
2023-03-21T07:20:51.180Z,9.20
2023-03-21T07:23:21.901Z,9.75
2023-03-21T07:25:52.343Z,16.20
2023-03-21T07:28:19.098Z,9.00
2023-03-21T07:30:46.010Z,9.00
2023-03-21T07:33:12.597Z,20.00
2023-03-21T07:35:39.716Z,19.00
2023-03-21T07:38:06.698Z,19.00
2023-03-21T07:40:33.195Z,16.00
2023-03-21T07:42:59.860Z,7.40
2023-03-21T07:45:27.429Z,14.40
2023-03-21T07:47:54.619Z,11.00
2023-03-21T07:50:21.495Z,8.00
2023-03-21T07:52:48.209Z,13.00
2023-03-21T07:55:14.723Z,12.00
2023-03-21T07:57:41.183Z,10.50
2023-03-21T08:00:08.309Z,8.00
2023-03-21T08:02:34.802Z,9.00
2023-03-21T08:05:01.324Z,9.00
2023-03-21T08:07:27.946Z,10.00
2023-03-21T08:09:54.444Z,14.50
2023-03-21T08:12:21.118Z,14.40
2023-03-21T08:14:47.845Z,10.50
2023-03-21T08:17:14.275Z,9.00
2023-03-21T08:19:40.908Z,8.00
2023-03-21T08:22:07.378Z,11.20
2023-03-21T08:24:34.210Z,7.80
2023-03-21T08:27:01.804Z,9.00
2023-03-21T08:29:28.462Z,8.00
2023-03-21T08:31:54.912Z,8.00
2023-03-21T08:34:23.173Z,8.00
2023-03-21T08:36:49.741Z,7.00
2023-03-21T08:39:16.195Z,6.25
2023-03-21T08:41:45.213Z,8.20
2023-03-21T08:44:11.753Z,7.00
2023-03-21T08:46:38.270Z,7.33
2023-03-21T08:49:04.812Z,6.40
2023-03-21T08:51:31.829Z,7.25
2023-03-21T08:53:58.346Z,4.60
2023-03-21T08:56:24.870Z,8.00
2023-03-21T08:58:51.403Z,5.40
2023-03-21T09:01:18.190Z,6.60
2023-03-21T09:03:44.757Z,7.00
2023-03-21T09:06:14.266Z,7.00
2023-03-21T09:08:42.365Z,6.00
2023-03-21T09:11:09.457Z,9.00
2023-03-21T09:13:35.910Z,7.75
2023-03-21T09:16:02.766Z,6.00
2023-03-21T09:18:48.945Z,6.00
2023-03-21T09:21:16.635Z,8.00
2023-03-21T09:23:45.057Z,7.00
2023-03-21T09:26:12.694Z,7.00
2023-03-21T09:28:40.355Z,7.50
2023-03-21T09:31:08.460Z,7.00
2023-03-21T09:33:35.477Z,9.40
2023-03-21T09:36:02.165Z,7.00
2023-03-21T09:38:30.630Z,6.25
2023-03-21T09:41:04.556Z,7.75
2023-03-21T09:43:49.620Z,7.20
2023-03-21T09:46:22.172Z,8.00
2023-03-21T09:49:09.951Z,8.00
2023-03-21T09:51:39.813Z,6.00
2023-03-21T09:54:14.158Z,6.80
2023-03-21T09:56:44.570Z,8.40
2023-03-21T09:59:19.555Z,8.40
2023-03-21T10:01:48.486Z,7.50
2023-03-21T10:04:17.802Z,7.60
2023-03-21T10:06:45.869Z,7.60
2023-03-21T10:09:16.683Z,6.33
2023-03-21T10:11:43.305Z,7.00
2023-03-21T10:14:19.080Z,6.00
2023-03-21T10:16:46.792Z,5.80
2023-03-21T10:19:15.389Z,8.00
2023-03-21T10:21:59.722Z,5.60
2023-03-21T10:24:28.311Z,6.00
2023-03-21T10:26:56.091Z,7.00
2023-03-21T10:29:26.226Z,5.00
2023-03-21T10:31:54.061Z,7.00
2023-03-21T10:34:23.690Z,5.25
2023-03-21T10:36:50.185Z,6.00
2023-03-21T10:39:25.134Z,6.50
2023-03-21T10:41:52.052Z,7.00
2023-03-21T10:44:19.074Z,5.00
2023-03-21T10:46:56.443Z,6.00
2023-03-21T10:49:25.498Z,6.25
2023-03-21T10:51:53.348Z,5.00
2023-03-21T10:54:21.431Z,7.00
2023-03-21T10:56:53.449Z,10.00
2023-03-21T10:59:22.876Z,10.00
2023-03-21T11:01:51.660Z,11.00
2023-03-21T11:04:26.500Z,10.00
2023-03-21T11:07:02.959Z,12.75
2023-03-21T11:09:49.995Z,16.25
2023-03-21T11:12:17.775Z,22.00
2023-03-21T11:14:48.580Z,19.00
2023-03-21T11:17:17.811Z,19.40
2023-03-21T11:20:01.388Z,20.50
2023-03-21T11:22:37.356Z,19.50
2023-03-21T11:25:09.296Z,18.60
2023-03-21T11:27:36.027Z,18.80
2023-03-21T11:30:05.066Z,15.20
2023-03-21T11:32:36.180Z,16.00
2023-03-21T11:35:07.759Z,15.00
2023-03-21T11:37:34.192Z,14.00
2023-03-21T11:40:21.455Z,13.40
2023-03-21T11:42:49.840Z,12.60
2023-03-21T11:45:17.925Z,13.00
2023-03-21T11:47:46.381Z,12.80
2023-03-21T11:50:19.030Z,11.00
2023-03-21T11:52:55.842Z,11.00
2023-03-21T11:55:26.536Z,26.75
2023-03-21T11:57:53.383Z,39.00
2023-03-21T12:00:26.155Z,21.80
2023-03-21T12:02:55.554Z,20.80
2023-03-21T12:05:34.326Z,26.00
2023-03-21T12:08:07.570Z,46.50
2023-03-21T12:10:55.841Z,23.33
2023-03-21T12:13:37.058Z,10.00
2023-03-21T12:16:12.405Z,13.75
2023-03-21T12:18:49.020Z,12.00
2023-03-21T12:21:34.751Z,12.00
2023-03-21T12:24:01.190Z,9.50
2023-03-21T12:26:42.839Z,11.00
2023-03-21T12:29:17.106Z,11.40
2023-03-21T12:31:49.843Z,11.50
2023-03-21T12:34:24.961Z,11.00
2023-03-21T12:37:27.053Z,12.00
2023-03-21T12:39:56.858Z,12.00
2023-03-21T12:42:32.274Z,10.00
2023-03-21T12:45:15.372Z,11.00
2023-03-21T12:47:43.655Z,12.00
2023-03-21T12:50:10.272Z,10.00
2023-03-21T12:52:41.688Z,12.00
2023-03-21T12:55:15.016Z,12.20
2023-03-21T12:57:56.484Z,12.00
2023-03-21T13:00:32.920Z,12.75
2023-03-21T13:03:11.571Z,13.60
2023-03-21T13:05:41.145Z,13.75
2023-03-21T13:08:12.002Z,15.50
2023-03-21T13:10:40.083Z,14.00
2023-03-21T13:13:27.323Z,12.00
2023-03-21T13:16:04.968Z,11.25
2023-03-21T13:18:31.468Z,11.60
2023-03-21T13:21:01.271Z,9.00
2023-03-21T13:23:34.369Z,6.60
2023-03-21T13:26:01.047Z,10.50
2023-03-21T13:28:29.169Z,8.00
2023-03-21T13:31:14.211Z,7.00
2023-03-21T13:33:44.766Z,6.00
2023-03-21T13:36:15.606Z,8.00
2023-03-21T13:38:43.195Z,10.00
2023-03-21T13:41:17.895Z,11.40
2023-03-21T13:44:02.510Z,6.40
2023-03-21T13:46:29.083Z,8.00
2023-03-21T13:48:59.798Z,10.00
2023-03-21T13:51:29.904Z,5.50
2023-03-21T13:54:00.650Z,8.00
2023-03-21T13:56:27.219Z,8.60
2023-03-21T13:59:00.743Z,7.00
2023-03-21T14:01:30.429Z,4.00
2023-03-21T14:04:16.239Z,3.00
2023-03-21T14:06:56.561Z,6.00
2023-03-21T14:09:46.084Z,8.00
2023-03-21T14:12:17.497Z,6.60
2023-03-21T14:14:46.615Z,5.00
2023-03-21T14:17:22.398Z,8.00
2023-03-21T14:19:52.413Z,9.00
2023-03-21T14:22:18.885Z,7.00
2023-03-21T14:24:49.247Z,7.00
2023-03-21T14:27:15.729Z,5.00
2023-03-21T14:29:42.153Z,6.75
2023-03-21T14:32:18.942Z,9.00
2023-03-21T14:34:46.650Z,9.00
2023-03-21T14:37:13.162Z,8.00
2023-03-21T14:39:39.656Z,7.75
2023-03-21T14:42:07.385Z,7.00
2023-03-21T14:44:53.858Z,7.00
2023-03-21T14:47:21.664Z,6.80
2023-03-21T14:49:49.066Z,6.00
2023-03-21T14:52:24.745Z,7.00
2023-03-21T14:54:52.134Z,8.00
2023-03-21T14:57:23.196Z,7.75
2023-03-21T14:59:53.227Z,7.00
2023-03-21T15:02:25.641Z,7.40
2023-03-21T15:04:53.440Z,8.00
2023-03-21T15:07:31.013Z,6.75
2023-03-21T15:09:59.285Z,8.00
2023-03-21T15:12:25.933Z,6.00
2023-03-21T15:14:52.902Z,4.60
2023-03-21T15:17:20.077Z,6.40
2023-03-21T15:19:46.696Z,6.00
2023-03-21T15:22:16.092Z,5.00
2023-03-21T15:24:45.260Z,6.40
2023-03-21T15:27:17.538Z,7.40
2023-03-21T15:29:44.636Z,7.60
2023-03-21T15:32:19.504Z,5.60
2023-03-21T15:34:46.321Z,4.80
2023-03-21T15:37:22.995Z,5.40
2023-03-21T15:39:49.936Z,5.00
2023-03-21T15:42:27.685Z,3.50
2023-03-21T15:44:55.586Z,3.00
2023-03-21T15:47:41.755Z,5.00
2023-03-21T15:50:22.161Z,5.00
2023-03-21T15:52:52.224Z,4.00
2023-03-21T15:55:22.358Z,5.00
2023-03-21T15:57:50.162Z,4.00
2023-03-21T16:00:18.400Z,5.00
2023-03-21T16:02:44.972Z,4.50
2023-03-21T16:05:14.733Z,3.40
2023-03-21T16:07:45.713Z,5.25
2023-03-21T16:10:25.052Z,6.75
2023-03-21T16:12:51.561Z,6.00
2023-03-21T16:15:18.054Z,7.00
2023-03-21T16:17:52.200Z,4.00
2023-03-21T16:20:20.757Z,3.00
2023-03-21T16:22:47.662Z,3.75
2023-03-21T16:25:14.373Z,2.00
2023-03-21T16:27:41.169Z,3.00
2023-03-21T16:30:09.437Z,5.80
2023-03-21T16:32:36.663Z,4.00
2023-03-21T16:35:04.227Z,3.00
2023-03-21T16:37:30.833Z,4.40
2023-03-21T16:39:57.525Z,3.00
2023-03-21T16:42:24.044Z,3.00
2023-03-21T16:44:50.529Z,4.00
2023-03-21T16:47:18.209Z,3.00
2023-03-21T16:49:47.576Z,4.00
2023-03-21T16:52:14.608Z,4.00
2023-03-21T16:54:41.647Z,3.00
2023-03-21T16:57:09.309Z,4.00
2023-03-21T16:59:36.020Z,3.00
2023-03-21T17:02:02.868Z,4.00
2023-03-21T17:04:29.361Z,2.75
2023-03-21T17:06:55.911Z,4.80
2023-03-21T17:09:23.601Z,5.25
2023-03-21T17:11:50.264Z,21.80
2023-03-21T17:14:18.017Z,37.40
2023-03-21T17:16:45.320Z,8.00
2023-03-21T17:19:23.985Z,8.50
2023-03-21T17:21:53.707Z,8.00
2023-03-21T17:24:20.162Z,8.80
2023-03-21T17:26:46.644Z,7.25
2023-03-21T17:29:13.682Z,7.00
2023-03-21T17:31:40.345Z,6.00
2023-03-21T17:34:06.775Z,2.75
2023-03-21T17:36:34.765Z,3.00
2023-03-21T17:39:01.614Z,4.00
2023-03-21T17:41:28.191Z,4.00
2023-03-21T17:43:55.850Z,5.00
2023-03-21T17:46:23.150Z,11.00
2023-03-21T17:48:49.710Z,8.80
2023-03-21T17:51:17.176Z,26.00
2023-03-21T17:53:44.561Z,19.40
2023-03-21T17:56:15.997Z,19.40
2023-03-21T17:58:42.579Z,19.00
2023-03-21T18:01:09.236Z,20.00
2023-03-21T18:03:35.683Z,18.40
2023-03-21T18:06:02.189Z,22.00
2023-03-21T18:08:28.708Z,14.00
2023-03-21T18:10:55.236Z,16.00
2023-03-21T18:13:21.746Z,10.00
2023-03-21T18:15:50.690Z,6.20
2023-03-21T18:18:17.367Z,9.00
2023-03-21T18:20:52.257Z,10.60
2023-03-21T18:23:19.404Z,9.00
2023-03-21T18:25:46.073Z,8.00
2023-03-21T18:28:13.167Z,6.00
2023-03-21T18:31:06.914Z,7.80
2023-03-21T18:33:27.889Z,10.60
2023-03-21T18:35:59.215Z,14.40
2023-03-21T18:38:27.533Z,7.00
2023-03-21T18:40:54.528Z,8.40
2023-03-21T18:46:08.392Z,12.25
2023-03-21T18:48:35.666Z,8.20
2023-03-21T18:51:02.379Z,7.00
2023-03-21T18:53:29.881Z,6.80
2023-03-21T18:55:57.541Z,7.00
2023-03-21T18:58:24.169Z,6.00
2023-03-21T19:00:51.693Z,8.00
2023-03-21T19:03:30.730Z,9.40
2023-03-21T19:06:03.749Z,8.00
2023-03-21T19:08:30.777Z,6.00
2023-03-21T19:11:01.408Z,5.80
2023-03-21T19:13:29.870Z,5.80
2023-03-21T19:15:56.415Z,6.00
2023-03-21T19:18:53.489Z,6.00
2023-03-21T19:21:09.767Z,6.00
2023-03-21T19:24:11.656Z,6.00
2023-03-21T19:26:23.546Z,6.25
2023-03-21T19:28:50.016Z,6.00
2023-03-21T19:31:17.996Z,7.00
2023-03-21T19:33:45.039Z,6.50
2023-03-21T19:36:21.598Z,7.40
2023-03-21T19:38:48.572Z,20.00
2023-03-21T19:41:15.065Z,28.60
2023-03-21T19:43:52.905Z,27.40
2023-03-21T19:46:22.700Z,19.60
2023-03-21T19:48:50.283Z,10.75
2023-03-21T19:51:28.700Z,11.00
2023-03-21T19:53:56.596Z,11.00
2023-03-21T19:56:26.773Z,12.80
2023-03-21T19:58:54.318Z,11.40
2023-03-21T20:01:21.191Z,10.00
2023-03-21T20:03:47.927Z,17.40
2023-03-21T20:06:14.518Z,29.00
2023-03-21T20:11:27.900Z,27.50
2023-03-21T20:13:54.537Z,31.00
2023-03-21T20:16:21.418Z,27.00
2023-03-21T20:18:47.954Z,23.00
2023-03-21T20:21:18.088Z,22.00
2023-03-21T20:23:49.276Z,22.00
2023-03-21T20:26:16.857Z,21.00
2023-03-21T20:28:56.480Z,28.00
2023-03-21T20:31:30.772Z,26.20
2023-03-21T20:33:57.260Z,21.40
2023-03-21T20:36:38.636Z,21.00
2023-03-21T20:39:06.944Z,23.50
2023-03-21T20:41:33.471Z,23.25
2023-03-21T20:46:47.864Z,22.00
2023-03-21T20:49:15.422Z,19.60
2023-03-21T20:52:40.863Z,20.00
2023-03-21T20:54:28.926Z,21.00
2023-03-21T20:56:56.791Z,21.75
2023-03-21T20:59:27.121Z,22.00
2023-03-21T21:01:54.539Z,21.75
2023-03-21T21:04:22.730Z,20.00
2023-03-21T21:06:49.606Z,19.80
2023-03-21T21:09:16.571Z,20.00
2023-03-21T21:12:06.238Z,19.40
2023-03-21T21:14:29.702Z,18.00
2023-03-21T21:16:56.189Z,16.75
2023-03-21T21:19:22.769Z,16.00
2023-03-21T21:21:50.202Z,17.50
2023-03-21T21:24:16.643Z,20.00
2023-03-21T21:26:46.459Z,18.40
2023-03-21T21:29:16.782Z,20.00
2023-03-21T21:31:47.561Z,15.60
2023-03-21T21:34:15.827Z,17.00
2023-03-21T21:36:44.940Z,15.00
2023-03-21T21:39:13.264Z,12.25
2023-03-21T21:41:40.024Z,11.00
2023-03-21T21:44:06.831Z,10.40
2023-03-21T21:46:33.359Z,10.00
2023-03-21T21:49:00.103Z,8.40
2023-03-21T21:51:26.903Z,10.50
2023-03-21T21:53:55.956Z,13.75
2023-03-21T21:56:24.349Z,11.00
2023-03-21T21:58:53.330Z,9.75
2023-03-21T22:01:23.573Z,12.25
2023-03-21T22:03:51.732Z,11.40
2023-03-21T22:06:18.233Z,15.00
2023-03-21T22:08:47.006Z,15.00
2023-03-21T22:11:18.631Z,13.50
2023-03-21T22:13:45.663Z,14.00
2023-03-21T22:16:12.245Z,13.00
2023-03-21T22:18:38.781Z,17.00
2023-03-21T22:21:06.446Z,18.75
2023-03-21T22:23:33.028Z,21.50
2023-03-21T22:25:59.786Z,23.00
2023-03-21T22:28:26.278Z,22.20
2023-03-21T22:30:53.525Z,21.75
2023-03-21T22:33:22.347Z,20.00
2023-03-21T22:35:52.688Z,21.00
2023-03-21T22:38:24.450Z,20.50
2023-03-21T22:40:58.819Z,22.00
2023-03-21T22:43:26.017Z,16.33
2023-03-21T22:45:52.743Z,19.00
2023-03-21T22:48:19.809Z,18.60
2023-03-21T22:50:46.673Z,20.00
2023-03-21T22:53:14.612Z,19.00
2023-03-21T22:55:41.070Z,21.50
2023-03-21T22:58:07.854Z,22.00
2023-03-21T23:00:34.628Z,22.50
2023-03-21T23:03:01.102Z,21.00
2023-03-21T23:05:27.712Z,22.00
2023-03-21T23:07:54.206Z,22.00
2023-03-21T23:10:21.913Z,23.00
2023-03-21T23:12:48.843Z,23.00
2023-03-21T23:15:15.452Z,22.50
2023-03-21T23:17:44.243Z,23.00
2023-03-21T23:20:11.009Z,23.00
2023-03-21T23:22:37.669Z,22.00
2023-03-21T23:25:04.462Z,22.80
2023-03-21T23:27:30.894Z,23.00
2023-03-21T23:29:57.347Z,23.00
2023-03-21T23:32:23.902Z,24.00
2023-03-21T23:34:50.397Z,26.50
2023-03-21T23:37:16.921Z,23.50
2023-03-21T23:39:45.268Z,24.00
2023-03-21T23:42:11.846Z,25.00
2023-03-21T23:44:38.510Z,26.00
2023-03-21T23:47:05.122Z,26.00
2023-03-21T23:49:33.833Z,26.80
2023-03-21T23:52:03.470Z,27.80
2023-03-21T23:54:29.944Z,24.50
2023-03-21T23:56:56.597Z,27.00
2023-03-21T23:59:23.440Z,27.50
